Time;durP1;ratioP1;P1;durP2;ratioP2;P2;SDS_P1;SDS_P2;PMS_P1;PMS_P2;Temp;Humidity;BMP_temperature;BMP_pressure;BME280_temperature;BME280_humidity;BME280_pressure;Samples;Min_cycle;Max_cycle;Signal;HPM_P1;HPM_P2
2023/07/11 00:00:10;;;;;;;10.15;4.57;;;18.00;99.90;;;;;;5115728;27;20086;-40
2023/07/11 00:02:36;;;;;;;7.95;4.93;;;18.00;99.90;;;;;;5115722;27;20078;-40
2023/07/11 00:05:03;;;;;;;7.22;4.55;;;18.00;99.90;;;;;;5116682;27;20393;-40
2023/07/11 00:07:29;;;;;;;7.05;4.20;;;17.90;99.90;;;;;;5106999;27;20534;-40
2023/07/11 00:09:55;;;;;;;8.43;4.15;;;17.90;99.90;;;;;;5098354;27;20406;-41
2023/07/11 00:12:20;;;;;;;5.63;3.80;;;17.90;99.90;;;;;;5115493;27;20078;-40
2023/07/11 00:14:46;;;;;;;7.55;4.03;;;17.80;99.90;;;;;;5097228;27;20058;-39
2023/07/11 00:17:12;;;;;;;4.75;3.30;;;17.80;99.90;;;;;;5115642;27;20055;-39
2023/07/11 00:19:56;;;;;;;7.22;3.78;;;17.70;99.90;;;;;;5116246;27;20093;-39
2023/07/11 00:22:24;;;;;;;5.25;3.47;;;17.70;99.90;;;;;;5115766;27;20561;-40
2023/07/11 00:24:50;;;;;;;5.75;3.63;;;17.70;99.90;;;;;;5116245;27;20573;-39
2023/07/11 00:27:17;;;;;;;6.78;3.97;;;17.70;99.90;;;;;;5115192;27;20047;-40
2023/07/11 00:29:44;;;;;;;6.22;4.70;;;17.60;99.90;;;;;;5115937;27;20047;-39
2023/07/11 00:32:10;;;;;;;6.55;4.35;;;17.60;99.90;;;;;;5114427;27;20375;-40
2023/07/11 00:34:36;;;;;;;8.82;4.72;;;17.60;99.90;;;;;;5110177;27;20445;-40
2023/07/11 00:37:01;;;;;;;6.88;4.03;;;17.70;99.90;;;;;;5114600;27;20507;-40
2023/07/11 00:39:29;;;;;;;6.00;4.13;;;17.70;99.90;;;;;;5113544;27;20574;-42
2023/07/11 00:41:55;;;;;;;5.35;3.72;;;17.80;99.90;;;;;;5135191;27;20125;-41
2023/07/11 00:44:22;;;;;;;7.43;3.45;;;17.80;99.90;;;;;;5109491;27;20036;-40
2023/07/11 00:46:47;;;;;;;4.10;3.45;;;17.80;99.90;;;;;;5135897;27;20050;-40
2023/07/11 00:49:16;;;;;;;6.07;3.42;;;17.80;99.90;;;;;;5136052;27;20159;-39
2023/07/11 00:51:46;;;;;;;10.75;4.25;;;17.80;99.90;;;;;;5098079;27;20062;-40
2023/07/11 00:54:15;;;;;;;5.53;4.07;;;17.90;99.90;;;;;;5111874;27;20544;-40
2023/07/11 00:56:45;;;;;;;8.93;3.78;;;17.90;99.90;;;;;;5095974;27;20440;-40
2023/07/11 00:59:10;;;;;;;7.35;3.67;;;17.90;99.90;;;;;;5115219;27;20050;-41
2023/07/11 01:01:36;;;;;;;8.73;5.25;;;17.90;99.90;;;;;;5114892;27;20043;-40
2023/07/11 01:04:05;;;;;;;5.63;3.55;;;17.90;99.90;;;;;;5115839;27;20058;-40
2023/07/11 01:06:32;;;;;;;7.15;4.00;;;17.90;99.90;;;;;;5114646;27;20112;-40
2023/07/11 01:09:00;;;;;;;6.40;4.18;;;18.00;99.90;;;;;;5115366;27;20062;-40
2023/07/11 01:11:29;;;;;;;7.72;3.88;;;17.90;99.90;;;;;;5115374;27;20035;-40
2023/07/11 01:13:55;;;;;;;4.47;3.92;;;17.90;99.90;;;;;;5096920;28;20050;-43
2023/07/11 01:16:21;;;;;;;8.40;5.22;;;17.80;99.90;;;;;;5115267;27;20498;-40
2023/07/11 01:18:47;;;;;;;5.35;3.83;;;17.90;99.90;;;;;;5115651;27;20146;-39
2023/07/11 01:21:18;;;;;;;8.55;4.32;;;17.80;99.90;;;;;;5115202;27;20051;-39
2023/07/11 01:23:44;;;;;;;9.13;4.82;;;17.80;99.90;;;;;;5096822;28;20070;-40
2023/07/11 01:26:11;;;;;;;10.95;5.25;;;17.80;99.90;;;;;;5114709;27;20430;-41
2023/07/11 01:28:41;;;;;;;6.50;4.70;;;17.70;99.90;;;;;;5116181;27;20512;-39
2023/07/11 01:31:06;;;;;;;6.97;5.03;;;17.70;99.90;;;;;;5114066;27;20406;-40
2023/07/11 01:33:33;;;;;;;8.55;4.85;;;17.60;99.90;;;;;;5115364;27;20042;-40
2023/07/11 01:36:01;;;;;;;8.95;5.07;;;17.50;99.90;;;;;;5087074;28;20098;-40
2023/07/11 01:38:27;;;;;;;7.82;4.38;;;17.50;99.90;;;;;;5111405;27;20451;-39
2023/07/11 01:40:52;;;;;;;10.48;4.60;;;17.50;99.90;;;;;;5115492;27;20043;-39
2023/07/11 01:43:19;;;;;;;9.65;4.07;;;17.50;99.90;;;;;;5107320;27;20525;-40
2023/07/11 01:45:45;;;;;;;7.63;4.22;;;17.40;99.90;;;;;;5088968;27;20525;-40
2023/07/11 01:48:11;;;;;;;7.90;4.75;;;17.40;99.90;;;;;;5114512;27;20043;-40
2023/07/11 01:50:37;;;;;;;8.73;4.55;;;17.40;99.90;;;;;;5115270;27;20802;-40
2023/07/11 01:53:03;;;;;;;7.25;4.30;;;17.40;99.90;;;;;;5115231;27;20066;-40
2023/07/11 01:55:28;;;;;;;6.65;4.00;;;17.50;99.90;;;;;;5096677;27;20130;-40
2023/07/11 01:57:54;;;;;;;6.72;3.40;;;17.50;99.90;;;;;;5114584;27;20047;-40
2023/07/11 02:00:20;;;;;;;6.97;3.50;;;17.50;99.90;;;;;;5118644;27;20063;-41
2023/07/11 02:02:46;;;;;;;5.90;3.33;;;17.50;99.90;;;;;;5117605;27;20042;-40
2023/07/11 02:05:13;;;;;;;7.95;3.63;;;17.50;99.90;;;;;;5118673;27;20468;-41
2023/07/11 02:07:39;;;;;;;5.97;4.05;;;17.50;99.90;;;;;;5118924;27;20130;-39
2023/07/11 02:10:05;;;;;;;7.50;4.85;;;17.50;99.90;;;;;;5118325;27;20055;-40
2023/07/11 02:12:31;;;;;;;6.57;4.05;;;17.50;99.90;;;;;;5117982;27;20072;-40
2023/07/11 02:14:56;;;;;;;7.03;4.30;;;17.60;99.90;;;;;;5119172;27;20047;-41
2023/07/11 02:17:22;;;;;;;7.93;4.85;;;17.60;99.90;;;;;;5099508;27;20060;-40
2023/07/11 02:19:49;;;;;;;8.00;3.90;;;17.60;99.90;;;;;;5118139;27;20043;-41
2023/07/11 02:22:15;;;;;;;7.07;4.30;;;17.60;99.90;;;;;;5117992;27;20050;-40
2023/07/11 02:24:40;;;;;;;5.60;4.82;;;17.60;99.90;;;;;;5118376;27;20489;-39
2023/07/11 02:27:07;;;;;;;10.05;4.78;;;17.50;99.90;;;;;;5125921;27;20126;-40
2023/07/11 02:29:33;;;;;;;8.68;4.47;;;17.50;99.90;;;;;;5138848;27;20054;-39
2023/07/11 02:31:59;;;;;;;9.32;4.68;;;17.40;99.90;;;;;;5119044;27;20051;-41
2023/07/11 02:34:25;;;;;;;6.43;4.00;;;17.40;99.90;;;;;;5129951;27;20055;-41
2023/07/11 02:36:51;;;;;;;7.28;4.40;;;17.40;99.90;;;;;;5095494;27;20090;-39
2023/07/11 02:39:16;;;;;;;6.60;5.10;;;17.30;99.90;;;;;;5114594;27;20039;-39
2023/07/11 02:41:42;;;;;;;7.70;4.45;;;17.30;99.90;;;;;;5117783;27;20046;-39
2023/07/11 02:44:08;;;;;;;6.18;4.18;;;17.30;99.90;;;;;;5131137;27;20074;-40
2023/07/11 02:46:34;;;;;;;8.45;4.55;;;17.30;99.90;;;;;;5137079;27;20560;-40
2023/07/11 02:49:00;;;;;;;10.50;5.80;;;17.20;99.90;;;;;;5137173;27;20074;-40
2023/07/11 02:51:27;;;;;;;9.00;5.28;;;17.20;99.90;;;;;;5136420;27;20134;-39
2023/07/11 02:53:53;;;;;;;8.00;5.50;;;17.10;99.90;;;;;;5138295;27;20103;-41
2023/07/11 02:56:20;;;;;;;7.65;5.00;;;17.00;99.90;;;;;;5137637;27;20118;-39
2023/07/11 02:58:46;;;;;;;10.25;5.60;;;17.00;99.90;;;;;;5137603;27;20686;-40
2023/07/11 03:01:12;;;;;;;8.23;5.53;;;17.00;99.90;;;;;;5136899;27;20043;-39
2023/07/11 03:03:38;;;;;;;9.30;5.28;;;17.00;99.90;;;;;;5125196;27;20065;-39
2023/07/11 03:06:04;;;;;;;10.43;6.00;;;16.90;99.90;;;;;;5119309;27;20056;-41
2023/07/11 03:08:31;;;;;;;10.32;5.60;;;16.90;99.90;;;;;;5120034;27;20103;-41
2023/07/11 03:11:01;;;;;;;6.43;5.57;;;16.90;99.90;;;;;;5136346;27;20562;-42
2023/07/11 03:13:27;;;;;;;10.52;5.60;;;16.90;99.90;;;;;;5137402;27;20042;-39
2023/07/11 03:15:53;;;;;;;9.13;5.57;;;16.80;99.90;;;;;;5137347;27;20125;-40
2023/07/11 03:18:19;;;;;;;7.70;5.13;;;16.80;99.90;;;;;;5118820;27;20049;-39
2023/07/11 03:20:45;;;;;;;7.18;5.53;;;16.70;99.90;;;;;;5138438;27;20892;-39
2023/07/11 03:23:13;;;;;;;9.70;5.47;;;16.70;99.90;;;;;;5137091;27;20070;-40
2023/07/11 03:25:39;;;;;;;8.98;5.30;;;16.80;99.90;;;;;;5137503;27;20500;-40
2023/07/11 03:28:05;;;;;;;7.45;5.10;;;16.70;99.90;;;;;;5137781;27;20095;-40
2023/07/11 03:30:32;;;;;;;9.07;5.28;;;16.70;99.90;;;;;;5118726;27;20051;-39
2023/07/11 03:32:58;;;;;;;7.15;5.00;;;16.70;99.90;;;;;;5137060;27;20055;-42
2023/07/11 03:35:23;;;;;;;11.10;5.80;;;16.70;99.90;;;;;;5098010;27;20850;-40
2023/07/11 03:37:49;;;;;;;8.07;4.93;;;16.80;99.90;;;;;;5112933;27;20565;-40
2023/07/11 03:40:15;;;;;;;9.38;5.57;;;16.80;99.90;;;;;;5116694;27;20047;-42
2023/07/11 03:42:41;;;;;;;6.68;5.03;;;16.80;99.90;;;;;;5098083;27;20043;-40
2023/07/11 03:45:07;;;;;;;9.20;5.13;;;16.80;99.90;;;;;;5116369;27;20043;-40
2023/07/11 03:47:32;;;;;;;9.45;5.57;;;16.80;99.90;;;;;;5115561;27;20071;-40
2023/07/11 03:49:58;;;;;;;8.00;5.05;;;16.90;99.90;;;;;;5124940;27;20126;-40
2023/07/11 03:52:24;;;;;;;8.73;5.45;;;16.90;99.90;;;;;;5136554;27;20069;-40
2023/07/11 03:54:49;;;;;;;9.77;5.72;;;16.80;99.90;;;;;;5137702;27;20082;-39
2023/07/11 03:57:16;;;;;;;8.20;5.72;;;16.70;99.90;;;;;;5135889;27;20475;-40
2023/07/11 03:59:42;;;;;;;8.50;6.60;;;16.70;99.90;;;;;;5136806;27;20057;-39
2023/07/11 04:02:08;;;;;;;8.23;5.68;;;16.70;99.90;;;;;;5136151;27;20038;-40
2023/07/11 04:04:34;;;;;;;9.57;5.93;;;16.70;99.90;;;;;;5136146;27;20579;-41
2023/07/11 04:06:59;;;;;;;9.55;5.65;;;16.80;99.90;;;;;;5136061;27;20392;-41
2023/07/11 04:09:25;;;;;;;11.07;5.78;;;16.80;99.90;;;;;;5127932;27;20066;-40
2023/07/11 04:11:51;;;;;;;11.27;5.75;;;16.80;99.90;;;;;;5126925;27;20046;-40
2023/07/11 04:14:17;;;;;;;11.10;6.40;;;16.90;99.90;;;;;;5136188;27;20399;-40
2023/07/11 04:16:44;;;;;;;12.57;5.80;;;16.90;99.90;;;;;;5136009;27;20608;-40
2023/07/11 04:19:11;;;;;;;8.75;6.03;;;16.90;99.90;;;;;;5127639;27;20646;-40
2023/07/11 04:21:37;;;;;;;7.75;5.85;;;17.00;99.90;;;;;;5114685;27;20039;-40
2023/07/11 04:24:03;;;;;;;8.95;5.88;;;17.00;99.90;;;;;;5116095;27;20543;-39
2023/07/11 04:26:28;;;;;;;10.52;5.80;;;17.00;99.90;;;;;;5115110;27;20054;-39
2023/07/11 04:28:54;;;;;;;13.25;7.00;;;17.10;99.90;;;;;;5115964;27;20038;-42
2023/07/11 04:31:20;;;;;;;8.38;6.88;;;17.10;99.90;;;;;;5096870;27;20090;-39
2023/07/11 04:33:46;;;;;;;12.35;6.82;;;17.20;99.90;;;;;;5116534;27;20546;-40
2023/07/11 04:36:14;;;;;;;9.88;6.63;;;17.40;99.90;;;;;;5086421;27;20155;-39
2023/07/11 04:38:40;;;;;;;7.47;6.15;;;17.50;99.90;;;;;;5120606;27;20390;-40
2023/07/11 04:41:06;;;;;;;9.35;6.45;;;17.70;99.90;;;;;;5134954;27;20070;-40
2023/07/11 04:43:36;;;;;;;10.65;7.03;;;17.80;99.90;;;;;;5119503;27;20047;-40
2023/07/11 04:46:05;;;;;;;8.98;6.20;;;18.20;99.90;;;;;;5091842;27;20513;-40
2023/07/11 04:48:32;;;;;;;12.23;6.47;;;19.00;99.90;;;;;;5115181;27;20134;-41
2023/07/11 04:51:03;;;;;;;8.35;5.88;;;20.10;99.90;;;;;;5095757;27;20096;-43
2023/07/11 04:53:30;;;;;;;8.45;6.00;;;21.20;99.90;;;;;;5114204;27;20051;-41
2023/07/11 04:55:57;;;;;;;11.32;6.80;;;22.20;99.90;;;;;;5114179;27;20043;-41
2023/07/11 04:58:24;;;;;;;15.73;6.75;;;23.10;99.90;;;;;;5097059;27;20054;-41
2023/07/11 05:00:51;;;;;;;10.65;5.80;;;23.20;99.90;;;;;;5096635;27;20055;-40
2023/07/11 05:03:17;;;;;;;11.75;6.45;;;23.60;99.90;;;;;;5115609;27;20039;-42
2023/07/11 05:05:43;;;;;;;10.40;6.63;;;24.20;99.90;;;;;;5114327;27;20422;-42
2023/07/11 05:08:08;;;;;;;11.23;6.53;;;24.00;99.90;;;;;;5114807;27;20575;-41
2023/07/11 05:10:34;;;;;;;12.98;7.03;;;23.40;99.90;;;;;;5096400;28;20049;-41
2023/07/11 05:13:00;;;;;;;10.90;6.85;;;22.60;99.90;;;;;;5115056;27;20137;-42
2023/07/11 05:15:25;;;;;;;13.80;7.53;;;22.20;99.90;;;;;;5114015;27;20130;-41
2023/07/11 05:17:51;;;;;;;9.20;5.65;;;22.00;99.90;;;;;;5115130;27;20127;-41
2023/07/11 05:20:17;;;;;;;9.52;6.55;;;23.00;99.90;;;;;;5114656;27;20781;-41
2023/07/11 05:22:42;;;;;;;12.05;6.82;;;24.10;99.90;;;;;;5114323;27;20558;-41
2023/07/11 05:25:08;;;;;;;10.05;6.63;;;24.80;99.90;;;;;;5114082;27;20047;-41
2023/07/11 05:27:34;;;;;;;10.27;5.65;;;24.60;99.90;;;;;;5113774;27;20050;-42
2023/07/11 05:29:59;;;;;;;9.73;6.72;;;24.40;99.90;;;;;;5114969;27;20497;-42
2023/07/11 05:32:25;;;;;;;9.55;6.32;;;25.30;99.90;;;;;;5114827;27;20112;-41
2023/07/11 05:34:51;;;;;;;8.95;6.65;;;26.50;99.90;;;;;;5111547;27;20108;-41
2023/07/11 05:37:16;;;;;;;9.80;6.47;;;26.70;99.90;;;;;;5117157;27;20065;-41
2023/07/11 05:39:42;;;;;;;12.75;6.38;;;26.10;99.90;;;;;;5096601;27;20051;-42
2023/07/11 05:42:08;;;;;;;11.38;6.45;;;26.00;99.90;;;;;;5100634;27;20035;-42
2023/07/11 05:44:33;;;;;;;8.98;6.65;;;26.40;99.90;;;;;;5087341;27;20473;-44
2023/07/11 05:46:59;;;;;;;10.88;6.30;;;26.90;99.90;;;;;;5083313;27;20144;-43
2023/07/11 05:49:25;;;;;;;13.00;7.03;;;27.10;99.90;;;;;;5118691;27;20047;-42
2023/07/11 05:51:50;;;;;;;7.75;5.88;;;27.20;99.90;;;;;;5118575;27;20051;-42
2023/07/11 05:54:16;;;;;;;11.15;6.07;;;27.10;99.90;;;;;;5118047;27;20043;-42
2023/07/11 05:56:42;;;;;;;11.05;6.20;;;27.40;99.90;;;;;;5108518;27;20043;-41
2023/07/11 05:59:07;;;;;;;9.65;6.00;;;27.70;99.90;;;;;;5118509;27;20062;-42
2023/07/11 06:01:34;;;;;;;8.68;6.13;;;28.70;99.90;;;;;;5118694;27;20044;-42
2023/07/11 06:04:10;;;;;;;8.85;6.38;;;29.30;98.90;;;;;;5099723;27;20484;-45
2023/07/11 06:06:42;;;;;;;12.20;5.90;;;30.30;97.60;;;;;;5118053;27;20497;-42
2023/07/11 06:09:15;;;;;;;;;;;30.80;96.60;;;;;;5119118;27;20503;-41
2023/07/11 06:11:42;;;;;;;9.85;6.15;;;30.80;95.60;;;;;;5098909;27;19969;-42
2023/07/11 06:14:08;;;;;;;8.55;5.97;;;31.00;96.40;;;;;;5117477;27;20120;-41
2023/07/11 06:16:34;;;;;;;8.30;5.93;;;31.70;96.00;;;;;;5117265;27;20043;-41
2023/07/11 06:19:00;;;;;;;8.55;5.78;;;31.80;94.40;;;;;;5118284;27;20073;-41
2023/07/11 06:21:25;;;;;;;8.50;5.45;;;31.80;94.30;;;;;;5117194;27;20039;-41
2023/07/11 06:23:51;;;;;;;6.88;5.60;;;30.90;94.10;;;;;;5118141;27;20043;-41
2023/07/11 06:26:17;;;;;;;8.68;5.88;;;30.50;94.60;;;;;;5115618;27;20083;-41
2023/07/11 06:28:43;;;;;;;10.07;6.03;;;30.20;95.00;;;;;;5106210;27;20049;-41
2023/07/11 06:31:10;;;;;;;9.10;6.20;;;29.50;95.20;;;;;;5116934;27;20068;-41
2023/07/11 06:33:36;;;;;;;11.30;6.57;;;29.40;95.50;;;;;;5106577;27;20046;-40
2023/07/11 06:36:04;;;;;;;8.90;6.05;;;29.00;96.20;;;;;;5089313;28;20047;-40
2023/07/11 06:38:30;;;;;;;12.00;6.05;;;29.20;95.80;;;;;;5106684;27;20031;-40
2023/07/11 06:40:56;;;;;;;8.02;5.78;;;29.70;96.00;;;;;;5106516;27;20483;-43
2023/07/11 06:43:24;;;;;;;8.68;6.30;;;30.00;95.50;;;;;;5124428;27;20044;-42
2023/07/11 06:45:54;;;;;;;10.07;6.47;;;30.00;95.60;;;;;;5110380;27;20040;-42
2023/07/11 06:48:21;;;;;;;14.18;5.93;;;29.50;95.50;;;;;;5086538;27;20087;-41
2023/07/11 06:50:55;;;;;;;9.70;6.25;;;29.40;96.40;;;;;;5104753;27;20083;-42
2023/07/11 06:53:23;;;;;;;11.93;6.82;;;29.00;96.20;;;;;;5104600;27;20035;-42
2023/07/11 06:55:51;;;;;;;8.70;6.75;;;28.50;97.20;;;;;;5069670;27;20059;-42
2023/07/11 06:58:18;;;;;;;9.45;6.72;;;28.60;97.30;;;;;;5105755;27;20076;-41
2023/07/11 07:00:50;;;;;;;8.38;6.65;;;28.40;97.90;;;;;;5103759;27;20531;-40
2023/07/11 07:03:16;;;;;;;;;;;28.20;98.10;;;;;;5106229;27;20050;-40
2023/07/11 07:05:48;;;;;;;9.32;6.93;;;27.90;98.40;;;;;;5070166;27;19948;-44
2023/07/11 07:08:15;;;;;;;11.20;6.85;;;27.40;99.10;;;;;;5104265;27;20130;-41
2023/07/11 07:10:40;;;;;;;9.50;6.97;;;27.00;99.60;;;;;;5083329;28;20082;-41
2023/07/11 07:13:06;;;;;;;8.02;6.10;;;26.50;99.90;;;;;;5104713;27;20471;-41
2023/07/11 07:15:32;;;;;;;7.28;6.00;;;26.00;99.90;;;;;;5094336;27;20097;-40
2023/07/11 07:17:57;;;;;;;11.07;6.60;;;25.40;99.90;;;;;;5085033;27;20043;-42
2023/07/11 07:20:23;;;;;;;11.18;6.53;;;24.90;99.90;;;;;;5114870;27;20050;-40
2023/07/11 07:22:49;;;;;;;9.85;6.07;;;24.70;99.90;;;;;;5112451;27;20047;-40
2023/07/11 07:25:14;;;;;;;7.65;5.93;;;24.50;99.90;;;;;;5135579;27;20120;-41
2023/07/11 07:27:40;;;;;;;10.98;6.43;;;24.30;99.90;;;;;;5112175;27;20047;-43
2023/07/11 07:30:10;;;;;;;11.70;6.57;;;24.00;99.90;;;;;;5116158;27;20051;-43
2023/07/11 07:32:36;;;;;;;10.70;6.43;;;24.10;99.90;;;;;;5100970;27;20039;-41
2023/07/11 07:35:02;;;;;;;8.93;6.28;;;24.10;99.90;;;;;;5107511;27;20079;-42
2023/07/11 07:37:27;;;;;;;11.43;5.97;;;24.20;99.90;;;;;;5095722;27;20055;-42
2023/07/11 07:39:53;;;;;;;8.77;6.05;;;24.40;99.90;;;;;;5120146;27;20085;-42
2023/07/11 07:42:19;;;;;;;10.10;5.50;;;24.50;99.90;;;;;;5137163;27;20350;-40
2023/07/11 07:44:44;;;;;;;9.82;5.68;;;24.80;99.90;;;;;;5110319;27;20113;-41
2023/07/11 07:47:10;;;;;;;11.52;6.20;;;25.30;99.90;;;;;;5136807;27;20069;-41
2023/07/11 07:49:35;;;;;;;10.38;5.70;;;25.90;99.90;;;;;;5137953;27;20070;-41
2023/07/11 07:52:01;;;;;;;9.55;5.03;;;26.20;99.90;;;;;;5137228;27;20045;-44
2023/07/11 07:54:27;;;;;;;10.10;5.32;;;26.10;99.90;;;;;;5109441;27;20043;-41
2023/07/11 07:56:53;;;;;;;12.07;5.75;;;25.90;99.90;;;;;;5103391;27;20054;-40
2023/07/11 07:59:19;;;;;;;7.53;4.43;;;25.70;99.90;;;;;;5115075;27;20043;-40
2023/07/11 08:01:45;;;;;;;6.15;4.18;;;25.30;99.90;;;;;;5106444;27;20166;-40
2023/07/11 08:04:11;;;;;;;8.68;4.95;;;25.00;99.90;;;;;;5104400;27;20063;-40
2023/07/11 08:06:36;;;;;;;6.70;4.82;;;25.00;99.90;;;;;;5107252;27;20085;-42
2023/07/11 08:09:02;;;;;;;8.35;4.80;;;24.90;99.90;;;;;;5116448;27;20150;-42
2023/07/11 08:11:28;;;;;;;7.07;4.65;;;24.70;99.90;;;;;;5104123;27;20039;-40
2023/07/11 08:13:54;;;;;;;8.68;5.80;;;24.60;99.90;;;;;;5106223;27;20062;-42
2023/07/11 08:16:19;;;;;;;34.33;5.78;;;24.60;99.90;;;;;;5102242;27;20079;-41
2023/07/11 08:18:45;;;;;;;8.18;4.68;;;24.80;99.90;;;;;;5083024;28;20079;-43
2023/07/11 08:21:11;;;;;;;8.25;4.50;;;25.10;99.90;;;;;;5103529;27;20501;-41
2023/07/11 08:23:37;;;;;;;10.57;5.22;;;25.30;99.90;;;;;;5103313;27;20046;-40
2023/07/11 08:26:03;;;;;;;10.43;4.72;;;25.50;99.90;;;;;;5104341;27;20390;-44
2023/07/11 08:28:28;;;;;;;7.68;4.97;;;25.60;99.90;;;;;;5082974;28;20426;-42
2023/07/11 08:30:54;;;;;;;6.30;3.85;;;25.40;99.90;;;;;;5104110;27;20545;-44
2023/07/11 08:33:20;;;;;;;7.57;4.25;;;25.50;99.90;;;;;;5096513;27;20651;-43
2023/07/11 08:35:45;;;;;;;7.50;3.88;;;25.50;99.90;;;;;;5104334;27;20043;-43
2023/07/11 08:38:13;;;;;;;7.10;4.72;;;25.80;99.90;;;;;;5092022;27;20466;-40
2023/07/11 08:40:42;;;;;;;7.60;4.50;;;26.00;99.90;;;;;;5096169;27;20047;-41
2023/07/11 08:43:13;;;;;;;6.13;4.22;;;26.10;99.90;;;;;;5115069;27;20043;-41
2023/07/11 08:45:48;;;;;;;7.10;4.22;;;26.20;99.90;;;;;;5121134;27;20099;-40
2023/07/11 08:48:24;;;;;;;9.02;4.32;;;26.30;99.90;;;;;;5116719;27;20536;-40
2023/07/11 08:50:53;;;;;;;16.63;4.70;;;26.70;99.90;;;;;;5110070;27;20058;-41
2023/07/11 08:53:25;;;;;;;9.80;4.20;;;26.90;99.90;;;;;;5103243;27;20058;-41
2023/07/11 08:55:56;;;;;;;12.48;5.43;;;27.10;99.90;;;;;;5075478;28;20108;-44
2023/07/11 08:58:29;;;;;;;7.18;3.78;;;27.20;99.90;;;;;;5100555;27;20047;-40
2023/07/11 09:00:56;;;;;;;11.68;4.82;;;27.10;99.90;;;;;;5114668;27;20047;-41
2023/07/11 09:03:29;;;;;;;8.55;4.32;;;27.00;99.90;;;;;;5115759;27;20182;-41
2023/07/11 09:06:01;;;;;;;8.65;4.10;;;27.00;99.40;;;;;;5114876;27;20706;-41
2023/07/11 09:08:28;;;;;;;7.63;4.20;;;27.00;99.90;;;;;;5114271;27;20516;-43
2023/07/11 09:11:12;;;;;;;8.40;4.18;;;27.00;99.70;;;;;;5096657;27;20396;-42
2023/07/11 09:13:56;;;;;;;7.82;4.15;;;27.30;99.90;;;;;;5114671;27;20092;-41
2023/07/11 09:16:34;;;;;;;8.43;3.97;;;27.40;99.90;;;;;;5114523;27;20047;-43
2023/07/11 09:19:24;;;;;;;10.15;4.50;;;27.70;99.80;;;;;;5084880;27;20485;-41
2023/07/11 09:22:14;;;;;;;9.57;4.72;;;27.70;99.30;;;;;;5114861;27;20505;-41
2023/07/11 09:24:49;;;;;;;6.97;4.07;;;27.60;98.70;;;;;;5096520;27;20485;-40
2023/07/11 09:27:14;;;;;;;14.15;4.22;;;27.70;99.10;;;;;;5114837;27;20489;-41
2023/07/11 09:29:45;;;;;;;8.82;3.63;;;27.80;98.80;;;;;;5115230;27;20100;-42
2023/07/11 09:32:12;;;;;;;7.10;4.03;;;27.80;98.80;;;;;;5096559;28;20120;-40
2023/07/11 09:34:49;;;;;;;7.57;4.05;;;27.80;99.20;;;;;;5088981;27;20054;-43
2023/07/11 09:37:38;;;;;;;6.63;4.57;;;28.00;98.30;;;;;;5112807;27;20404;-42
2023/07/11 09:40:45;;;;;;;10.57;4.07;;;27.90;98.70;;;;;;5128584;27;20074;-42
2023/07/11 09:43:12;;;;;;;8.48;3.80;;;27.80;99.10;;;;;;5042126;28;20511;-41
2023/07/11 09:45:47;;;;;;;6.30;3.70;;;27.90;99.30;;;;;;5013370;28;20053;-44
2023/07/11 09:48:17;;;;;;;7.40;3.53;;;27.90;97.70;;;;;;5030391;28;20057;-41
2023/07/11 09:50:57;;;;;;;7.95;3.53;;;27.80;97.90;;;;;;5028312;28;20088;-41
2023/07/11 09:53:26;;;;;;;10.90;3.78;;;27.70;98.20;;;;;;5040021;28;20076;-43
2023/07/11 09:55:57;;;;;;;9.52;4.18;;;27.70;98.80;;;;;;5029869;28;20085;-43
2023/07/11 09:58:26;;;;;;;10.00;3.70;;;27.70;98.70;;;;;;5013560;28;20076;-42
2023/07/11 10:00:53;;;;;;;11.20;3.75;;;27.80;98.60;;;;;;5034285;28;20536;-40
2023/07/11 10:03:21;;;;;;;8.65;3.47;;;27.80;98.80;;;;;;5049904;28;20083;-42
2023/07/11 10:05:49;;;;;;;7.53;3.05;;;28.10;99.10;;;;;;5049519;28;20056;-40
2023/07/11 10:08:21;;;;;;;9.00;3.58;;;28.10;98.50;;;;;;5033531;28;20134;-42
2023/07/11 10:10:49;;;;;;;9.52;4.05;;;28.40;98.20;;;;;;5050134;28;20091;-41
2023/07/11 10:13:16;;;;;;;7.82;3.60;;;28.20;97.50;;;;;;5069361;27;20063;-45
2023/07/11 10:15:43;;;;;;;7.65;3.55;;;28.10;97.60;;;;;;5135196;27;20426;-40
2023/07/11 10:18:35;;;;;;;8.88;3.80;;;28.20;98.10;;;;;;5107823;27;20047;-40
2023/07/11 10:21:25;;;;;;;8.13;3.85;;;28.20;98.10;;;;;;5101746;27;20051;-42
2023/07/11 10:23:52;;;;;;;8.90;3.90;;;28.30;98.50;;;;;;5110133;27;20143;-41
2023/07/11 10:26:19;;;;;;;7.30;4.00;;;28.10;98.90;;;;;;5106043;27;20110;-41
2023/07/11 10:28:55;;;;;;;11.75;3.95;;;28.30;99.50;;;;;;5103573;27;20043;-44
2023/07/11 10:31:27;;;;;;;6.55;3.30;;;28.40;99.00;;;;;;5086670;27;20047;-42
2023/07/11 10:34:13;;;;;;;6.15;3.05;;;28.70;99.60;;;;;;5087858;27;20043;-42
2023/07/11 10:36:46;;;;;;;7.72;3.25;;;29.00;98.50;;;;;;5103609;27;20081;-41
2023/07/11 10:39:18;;;;;;;7.07;3.90;;;28.90;98.20;;;;;;5110190;27;20106;-41
2023/07/11 10:42:06;;;;;;;7.25;3.22;;;28.80;97.90;;;;;;5108579;27;20041;-40
2023/07/11 10:44:41;;;;;;;7.95;3.50;;;28.80;98.80;;;;;;5102521;27;20039;-41
2023/07/11 10:47:09;;;;;;;6.88;3.60;;;28.70;98.40;;;;;;5105038;27;20047;-41
2023/07/11 10:49:47;;;;;;;5.13;3.30;;;28.80;98.40;;;;;;5104907;27;20180;-42
2023/07/11 10:52:25;;;;;;;8.65;4.07;;;28.90;98.20;;;;;;5098340;27;20079;-41
2023/07/11 10:55:17;;;;;;;8.68;3.50;;;28.80;97.20;;;;;;5104731;27;20126;-41
2023/07/11 10:57:52;;;;;;;11.68;4.57;;;28.60;97.40;;;;;;5116268;27;20082;-40
2023/07/11 11:00:41;;;;;;;6.88;3.80;;;28.60;98.00;;;;;;5103763;27;20078;-42
2023/07/11 11:03:15;;;;;;;8.48;4.00;;;28.50;97.70;;;;;;5094653;27;20091;-41
2023/07/11 11:06:00;;;;;;;9.98;3.65;;;28.30;96.80;;;;;;5114113;27;20126;-40
2023/07/11 11:08:41;;;;;;;9.25;5.13;;;28.10;96.40;;;;;;5097026;27;20052;-41
2023/07/11 11:11:30;;;;;;;8.57;3.58;;;28.00;98.10;;;;;;5096998;27;20047;-41
2023/07/11 11:14:24;;;;;;;8.93;3.67;;;28.20;98.00;;;;;;5099682;27;20050;-43
2023/07/11 11:17:24;;;;;;;11.27;4.72;;;28.30;98.30;;;;;;5106577;27;20071;-41
2023/07/11 11:20:17;;;;;;;9.00;4.45;;;28.20;97.10;;;;;;5111163;27;20089;-41
2023/07/11 11:23:05;;;;;;;10.25;4.35;;;28.20;98.50;;;;;;5116654;27;20465;-41
2023/07/11 11:25:47;;;;;;;9.48;4.00;;;28.20;98.30;;;;;;5114283;27;20047;-41
2023/07/11 11:28:24;;;;;;;11.20;4.20;;;28.30;98.20;;;;;;5115782;27;20516;-41
2023/07/11 11:31:07;;;;;;;9.85;4.30;;;28.50;98.10;;;;;;5097009;27;20051;-41
2023/07/11 11:33:52;;;;;;;7.78;4.30;;;28.50;99.00;;;;;;5116845;27;20047;-40
2023/07/11 11:36:20;;;;;;;11.48;4.78;;;28.70;98.70;;;;;;5107401;27;21046;-41
2023/07/11 11:39:10;;;;;;;9.65;4.50;;;28.80;98.40;;;;;;5122618;27;20145;-42
2023/07/11 11:41:44;;;;;;;8.90;4.35;;;29.00;98.90;;;;;;5136285;27;20103;-42
2023/07/11 11:44:20;;;;;;;8.73;4.63;;;29.20;99.10;;;;;;5091005;27;20392;-42
2023/07/11 11:46:46;;;;;;;7.80;4.57;;;29.30;98.20;;;;;;5097460;27;20050;-41
2023/07/11 11:49:13;;;;;;;11.18;5.13;;;29.40;98.00;;;;;;5115865;27;20047;-41
2023/07/11 11:51:41;;;;;;;11.02;4.15;;;29.60;98.60;;;;;;5097313;27;20089;-41
2023/07/11 11:54:18;;;;;;;8.68;3.95;;;29.70;98.70;;;;;;5116575;27;20058;-42
2023/07/11 11:56:47;;;;;;;10.77;4.55;;;29.90;97.40;;;;;;5097084;27;20057;-43
2023/07/11 11:59:22;;;;;;;10.93;4.35;;;29.90;98.20;;;;;;5108129;27;20353;-40
2023/07/11 12:01:57;;;;;;;6.82;3.70;;;29.80;97.40;;;;;;5099689;27;20469;-41
2023/07/11 12:04:33;;;;;;;8.43;4.10;;;29.50;97.20;;;;;;5086135;28;20453;-44
2023/07/11 12:07:01;;;;;;;12.35;4.32;;;29.50;98.20;;;;;;5108265;27;20047;-44
2023/07/11 12:09:33;;;;;;;6.97;3.88;;;29.70;96.80;;;;;;5100934;27;20043;-41
2023/07/11 12:12:10;;;;;;;9.90;4.03;;;29.50;97.10;;;;;;5084584;27;20051;-43
2023/07/11 12:14:36;;;;;;;9.27;3.70;;;29.50;97.60;;;;;;5103687;27;20107;-44
2023/07/11 12:17:02;;;;;;;8.43;3.72;;;29.20;97.10;;;;;;5083572;28;20065;-41
2023/07/11 12:19:41;;;;;;;12.85;4.45;;;29.30;96.80;;;;;;5109051;27;20571;-44
2023/07/11 12:22:08;;;;;;;9.95;3.80;;;29.10;96.40;;;;;;5103349;27;20084;-40
2023/07/11 12:24:33;;;;;;;8.98;4.00;;;28.90;96.70;;;;;;5103592;27;20257;-41
2023/07/11 12:27:28;;;;;;;6.20;4.18;;;28.70;96.40;;;;;;5090543;27;20478;-41
2023/07/11 12:29:55;;;;;;;4.63;3.30;;;28.50;96.90;;;;;;5049954;28;20484;-42
2023/07/11 12:32:33;;;;;;;7.20;3.55;;;28.60;97.40;;;;;;5031307;28;20142;-41
2023/07/11 12:35:04;;;;;;;6.95;3.40;;;28.60;97.50;;;;;;5048905;28;20243;-44
2023/07/11 12:37:56;;;;;;;8.65;3.70;;;28.70;97.90;;;;;;5032153;28;20098;-45
2023/07/11 12:40:40;;;;;;;7.10;3.50;;;28.70;97.50;;;;;;5050113;28;20470;-44
2023/07/11 12:43:24;;;;;;;6.88;3.50;;;28.90;98.00;;;;;;5050062;28;20052;-41
2023/07/11 12:45:59;;;;;;;9.00;3.40;;;29.00;97.70;;;;;;5049382;28;20060;-41
2023/07/11 12:48:31;;;;;;;8.00;3.20;;;29.10;97.90;;;;;;5028466;28;20458;-40
2023/07/11 12:51:04;;;;;;;7.05;3.45;;;28.60;96.30;;;;;;5049751;28;20119;-41
2023/07/11 12:53:34;;;;;;;6.35;3.33;;;28.50;96.60;;;;;;5050029;28;20052;-41
2023/07/11 12:56:00;;;;;;;7.22;3.10;;;28.10;97.20;;;;;;5047371;28;20523;-42